Airfield :
LOGIN :

Register | Disclaimer

   EN    FR    IT 

 










Legend :    VFR   Marginal VFR   IFR   Intensive IFR   Very Intensive IFR
Visi :
Ceiling :
>= 8 km
>= 3000ft
5 to 8 km
1000 to 3000 ft
1500m to 5 km
500 to 1000 ft
800 to 1500m
200 to 500 ft
< 800m
< 200 ft
Symbols :   Thunderstorms  Fog  Heavy snow  Heavy precipitations  Wind > 20 kt
SIGMETs :     Misc.  Thunderstorms  Icing  Turbulence  Mountain Waves  Volcanic Ashes







- Airport Elevation : 870 ft
- IATA code : ETZ
- Download approach charts


LFJL - Metz Nancy Lorraine

CURRENT METAR :
  • 160700Z AUTO 21008KT 0600 0550 R22/0800N R04/0650N FG VV/// 01/01 Q1011 BECMG 2000 BR OVC003

EXPIRED METARs :
  • 160630Z AUTO 20006KT 1000 0700 R22/1600D R04/0900D BCFG VV/// 01/01 Q1011 BECMG 2000 BR OVC003
  • 160600Z AUTO 18006KT 1600 BR OVC003/// 00/00 Q1011 NOSIG
  • 160530Z AUTO 16007KT 2300 BR OVC002/// 00/00 Q1011 NOSIG
  • 160500Z AUTO 14007KT 2900 BR OVC004/// 00/00 Q1010 TEMPO 4500 BR

TAF AMD TAF LFJL
Valid from the 16 at 06:00 until the 17 at 06:00 UTC


160658Z 1606/1706 14008KT 2000 BR OVC003
TEMPO 1606/1624 0500 FG VV///
No reported NOTAMs for that airfield.



MET'MAP, your aeronautical weather chart ! - Copyright ORBIFLY December 2007 - Disclaimer

ORBIFLY MET'MAP TEAM :

Programming & Development : Alexandra Zaïnal
Concept & Development : Baudouin d'Aumeries
Co-Development & Prog : Marc-Olivier Méhu
Technical & hardware support : Manuel Goepfert

Contact : metmap@orbifly.com




SOURCES & CREDITS :

   NOAA